• pl
  • eng

Awiacja
WIADOMOŚCI
ostatnia aktualizacja: 26.09.2019 09:57
Uprzejmie informujemy, że od dnia 2.09.2019 jest dostępna w formie testowej prognoza GAFOR. Prosimy o przesyłanie na adres gafor@imgw.pl uwag i sugestii, które przyczynią się do rozwoju produktu.
Kliknij na pogrubioną czerwoną nazwę, aby odkodować depeszę. 03:01 20.01.2020
  • WIND
  • SIGNIFICANT EURO
  • SIGNIFICANT
  • SIGMET
  • AIRMET
  • TAF FC
  • TAF FT
  • METAR GG30
  • METAR GG00


METAR EPBY 200200Z 27005KT 9999 OVC020 02/00 Q1041=

METAR EPGD 200200Z 26008KT 9999 BKN011 02/00 Q1039 =

METAR EPKK 200200Z 34004KT 9999 SCT023 OVC033 02/00 Q1039 =

METAR EPKT 200200Z 36003KT 4400 BR OVC005 01/M00 Q1040 =

METAR EPLB 200200Z 34003KT 310V010 3000 BR SCT006 OVC009 02/02 Q1039
=

METAR EPLL 200200Z 27003KT 2500 BR OVC020 01/01 Q1040 =

METAR EPMO 200200Z 26003KT 9999 BKN025 02/01 Q1040 =

METAR EPPO 200200Z VRB02KT 9999 OVC025 02/01 Q1041 =

METAR EPRA 200200Z NIL=

METAR EPRZ 200200Z 34003KT 0350 R27/1200D FG OVC001 01/01 Q1038 =

METAR EPSC 200200Z 23003KT 190V260 9999 OVC016 03/01 Q1041 =

METAR EPSY 200200Z VRB02KT 9999 BKN020 03/01 Q1039=

METAR EPWA 200200Z 29004KT 5000 BR BKN030 01/00 Q1040 NOSIG=

METAR EPWR 200200Z VRB02KT 9999 FEW018 OVC024 02/01 Q1042 =

METAR EPZG 200200Z NIL=
Awiacja.imgw.pl jest pogodowym serwisem informacyjnym
Instytutu Meteorologii i Gospodarki Wodnej Państwowego Instytutu Badawczego.
Copyright IMGW PIB 2009-2019© Wszelkie prawa zastrzeżone.